CheckWX is a tool to help pilots better visualize weather data.  It is not intended as a substitute for an official pre-flight weather briefing.

17:30:40 UTC

FMSD METAR
Tôlanaro Airport
Tôlanaro, Comoros
Current

31 mins ago

FMSD 241700Z 10004KT 8000VCSH SCT016 BKN033 24/23 Q1012
Observed
Mar-24 @ 17:00 UTC
Wind
  • 100° at 4 KTS
Visibility
Cloud Levels
  • Scattered at 1,600' AGL
  • Broken at 3,300' AGL
Temperature
24°C / 75°F
Dewpoint
23°C / 73°F
Humidity
94%
Altimeter
29.88" Hg
Pressure
1011.92 hPa
Previous

2 hours ago

FMSD 241600Z 12004KT 8000VCSH SCT016 BKN033 24/23 Q1012
Observed
Mar-24 @ 16:00 UTC
Wind
  • 120° at 4 KTS
Visibility
Cloud Levels
  • Scattered at 1,600' AGL
  • Broken at 3,300' AGL
Temperature
24°C / 75°F
Dewpoint
23°C / 73°F
Humidity
94%
Altimeter
29.88" Hg
Pressure
1011.92 hPa
Previous

3 hours ago

FMSD 241500Z 06006KT 8000 -RA SCT016 BKN033 24/23 Q1012
Observed
Mar-24 @ 15:00 UTC
Wind
  • 060° at 6 KTS
Visibility
7,998 meters
Flight Rules
MVFR
Conditions
Light Rain
Cloud Levels
  • Scattered at 1,600' AGL
  • Broken at 3,300' AGL
Temperature
24°C / 75°F
Dewpoint
23°C / 73°F
Humidity
94%
Altimeter
29.88" Hg
Pressure
1011.92 hPa